createdAt,value
2023-05-04T00:03:51.001Z,6.30
2023-05-04T00:08:43.217Z,6.30
2023-05-04T00:13:35.178Z,6.10
2023-05-04T00:18:27.432Z,6.10
2023-05-04T00:23:19.752Z,6.20
2023-05-04T00:28:11.791Z,6.20
2023-05-04T00:33:03.940Z,6.10
2023-05-04T00:37:56.622Z,6.00
2023-05-04T00:42:48.679Z,5.90
2023-05-04T00:47:42.005Z,6.00
2023-05-04T00:52:34.677Z,6.00
2023-05-04T00:57:26.907Z,6.00
2023-05-04T01:02:19.945Z,6.00
2023-05-04T01:13:14.334Z,5.90
2023-05-04T01:18:07.345Z,5.90
2023-05-04T01:22:59.998Z,5.80
2023-05-04T01:28:17.768Z,5.80
2023-05-04T01:33:10.812Z,5.70
2023-05-04T01:38:03.765Z,5.70
2023-05-04T01:42:55.957Z,5.80
2023-05-04T01:47:48.710Z,5.80
2023-05-04T01:52:40.837Z,5.80
2023-05-04T01:57:33.043Z,5.80
2023-05-04T02:02:25.691Z,5.90
2023-05-04T02:07:17.884Z,5.80
2023-05-04T02:12:10.078Z,5.70
2023-05-04T02:17:02.092Z,5.60
2023-05-04T02:21:54.163Z,5.40
2023-05-04T02:26:47.100Z,5.40
2023-05-04T02:31:39.944Z,5.30
2023-05-04T02:36:32.281Z,5.20
2023-05-04T02:41:24.300Z,5.10
2023-05-04T02:46:17.327Z,5.00
2023-05-04T02:51:09.374Z,5.00
2023-05-04T02:56:01.522Z,4.90
2023-05-04T03:00:55.859Z,5.00
2023-05-04T03:05:48.024Z,5.10
2023-05-04T03:10:40.102Z,5.00
2023-05-04T03:15:34.644Z,4.90
2023-05-04T03:20:26.826Z,4.80
2023-05-04T03:25:19.073Z,4.80
2023-05-04T03:30:11.895Z,4.80
2023-05-04T03:35:04.464Z,4.80
2023-05-04T03:39:57.145Z,4.70
2023-05-04T03:44:49.418Z,4.80
2023-05-04T03:49:41.486Z,4.70
2023-05-04T03:54:33.572Z,4.80
2023-05-04T03:59:25.889Z,4.90
2023-05-04T04:04:18.806Z,5.00
2023-05-04T04:09:10.970Z,5.10
2023-05-04T04:14:03.070Z,5.20
2023-05-04T04:18:55.066Z,5.30
2023-05-04T04:23:47.127Z,5.40
2023-05-04T04:28:39.238Z,5.60
2023-05-04T04:33:31.356Z,5.70
2023-05-04T04:38:23.392Z,8.20
2023-05-04T04:43:15.420Z,12.70
2023-05-04T04:48:07.565Z,15.60
2023-05-04T04:53:00.027Z,16.00
2023-05-04T04:57:52.978Z,18.20
2023-05-04T05:02:45.747Z,18.10
2023-05-04T05:07:37.969Z,19.00
2023-05-04T05:12:30.083Z,14.60
2023-05-04T05:17:22.235Z,16.20
2023-05-04T05:22:14.452Z,20.70
2023-05-04T05:27:06.474Z,23.70
2023-05-04T05:31:58.492Z,25.60
2023-05-04T05:36:50.482Z,25.60
2023-05-04T05:41:43.830Z,25.90
2023-05-04T05:46:36.070Z,26.10
2023-05-04T05:51:28.104Z,27.80
2023-05-04T05:56:20.182Z,29.10
2023-05-04T06:01:13.445Z,31.20
2023-05-04T06:06:05.830Z,27.70
2023-05-04T06:10:58.368Z,28.40
2023-05-04T06:15:54.295Z,28.60
2023-05-04T06:20:46.721Z,26.30
2023-05-04T06:25:38.819Z,25.50
2023-05-04T06:30:30.961Z,26.60
2023-05-04T06:35:23.245Z,28.40
2023-05-04T06:40:15.849Z,27.80
2023-05-04T06:45:08.468Z,29.30
2023-05-04T06:50:02.357Z,29.90
2023-05-04T06:54:55.727Z,32.00
2023-05-04T06:59:47.913Z,34.10
2023-05-04T07:04:40.184Z,35.10
2023-05-04T07:09:32.504Z,33.00
2023-05-04T07:14:24.656Z,32.20
2023-05-04T07:19:17.067Z,32.40
2023-05-04T07:24:09.232Z,32.80
2023-05-04T07:29:01.434Z,33.00
2023-05-04T07:33:53.606Z,32.00
2023-05-04T07:38:45.693Z,33.00
2023-05-04T07:43:37.770Z,34.20
2023-05-04T07:48:29.881Z,34.50
2023-05-04T07:53:22.025Z,33.10
2023-05-04T07:58:15.339Z,31.50
2023-05-04T08:03:07.348Z,31.30
2023-05-04T08:07:59.504Z,31.70
2023-05-04T08:12:51.704Z,31.10
2023-05-04T08:17:44.331Z,30.60
2023-05-04T08:22:36.725Z,30.80
2023-05-04T08:27:28.776Z,29.90
2023-05-04T08:32:20.783Z,30.10
2023-05-04T08:37:13.412Z,30.10
2023-05-04T08:42:05.753Z,30.70
2023-05-04T08:46:57.730Z,29.00
2023-05-04T08:51:50.869Z,28.90
2023-05-04T08:56:44.572Z,31.40
2023-05-04T09:01:38.912Z,30.20
2023-05-04T09:06:32.069Z,29.70
2023-05-04T09:11:24.239Z,29.10
2023-05-04T09:16:16.535Z,29.40
2023-05-04T09:21:09.453Z,29.90
2023-05-04T09:26:01.753Z,30.20
2023-05-04T09:31:00.928Z,30.00
2023-05-04T09:35:53.121Z,28.60
2023-05-04T09:40:46.262Z,31.40
2023-05-04T09:45:42.163Z,31.30
2023-05-04T09:50:35.645Z,31.00
2023-05-04T09:55:28.589Z,32.00
2023-05-04T10:00:21.989Z,31.50
2023-05-04T10:05:17.904Z,33.60
2023-05-04T10:10:13.658Z,36.00
2023-05-04T10:15:12.123Z,35.50
2023-05-04T10:20:16.652Z,32.70
2023-05-04T10:25:32.945Z,31.00
2023-05-04T10:30:25.758Z,31.80
2023-05-04T10:35:19.841Z,33.70
2023-05-04T10:40:12.523Z,34.30
2023-05-04T10:45:07.227Z,32.50
2023-05-04T10:50:09.179Z,31.50
2023-05-04T10:55:02.824Z,31.50
2023-05-04T10:59:57.812Z,32.10
2023-05-04T11:05:08.545Z,31.60
2023-05-04T11:10:03.404Z,31.90
2023-05-04T11:15:12.151Z,32.10
2023-05-04T11:20:04.481Z,32.50
2023-05-04T11:24:56.651Z,32.60
2023-05-04T11:30:05.859Z,32.00
2023-05-04T11:34:57.892Z,30.30
2023-05-04T11:39:50.568Z,27.80
2023-05-04T11:44:43.075Z,26.20
2023-05-04T11:49:35.322Z,24.90
2023-05-04T11:54:27.572Z,24.60
2023-05-04T11:59:19.583Z,24.50
2023-05-04T12:04:11.746Z,23.70
2023-05-04T12:09:06.342Z,23.50
2023-05-04T12:14:14.063Z,23.80
2023-05-04T12:19:13.646Z,24.60
2023-05-04T12:24:06.774Z,24.70
2023-05-04T12:28:59.120Z,24.60
2023-05-04T12:33:51.600Z,24.10
2023-05-04T12:38:43.593Z,24.40
2023-05-04T12:43:35.751Z,24.90
2023-05-04T12:48:29.226Z,24.70
2023-05-04T12:53:22.459Z,24.50
2023-05-04T12:58:15.732Z,24.80
2023-05-04T13:03:08.710Z,25.30
2023-05-04T13:08:01.110Z,25.40
2023-05-04T13:12:53.196Z,25.40
2023-05-04T13:17:45.471Z,24.70
2023-05-04T13:22:37.777Z,24.20
2023-05-04T13:27:30.640Z,23.80
2023-05-04T13:32:22.766Z,23.50
2023-05-04T13:37:18.404Z,23.40
2023-05-04T13:42:14.148Z,23.60
2023-05-04T13:47:06.254Z,23.90
2023-05-04T13:51:58.971Z,24.20
2023-05-04T13:56:52.202Z,24.10
2023-05-04T14:01:44.830Z,24.00
2023-05-04T14:06:37.208Z,24.00
2023-05-04T14:11:31.495Z,24.30
2023-05-04T14:16:24.038Z,24.30
2023-05-04T14:21:16.549Z,24.00
2023-05-04T14:26:08.721Z,24.20
2023-05-04T14:31:08.670Z,24.30
2023-05-04T14:36:01.017Z,23.90
2023-05-04T14:40:55.347Z,23.60
2023-05-04T14:45:47.486Z,23.30
2023-05-04T14:50:39.980Z,23.10
2023-05-04T14:55:34.100Z,22.90
2023-05-04T15:00:26.226Z,22.70
2023-05-04T15:05:19.844Z,22.90
2023-05-04T15:10:13.696Z,23.40
2023-05-04T15:15:06.297Z,23.70
2023-05-04T15:19:58.386Z,23.60
2023-05-04T15:24:51.601Z,23.00
2023-05-04T15:29:43.568Z,22.90
2023-05-04T15:34:35.722Z,22.80
2023-05-04T15:39:27.696Z,22.60
2023-05-04T15:44:21.124Z,22.40
2023-05-04T15:49:13.376Z,22.30
2023-05-04T15:54:05.533Z,22.20
2023-05-04T15:58:57.503Z,22.10
2023-05-04T16:03:49.670Z,22.20
2023-05-04T16:08:41.761Z,22.20
2023-05-04T16:13:34.037Z,22.00
2023-05-04T16:18:26.125Z,21.90
2023-05-04T16:23:18.618Z,21.70
2023-05-04T16:28:11.320Z,21.50
2023-05-04T16:33:03.850Z,21.40
2023-05-04T16:37:55.849Z,21.30
2023-05-04T16:42:47.887Z,21.10
2023-05-04T16:47:41.565Z,20.80
2023-05-04T16:52:33.849Z,20.60
2023-05-04T16:57:25.931Z,20.30
2023-05-04T17:02:19.224Z,20.10
2023-05-04T17:07:11.345Z,20.00
2023-05-04T17:12:03.617Z,19.90
2023-05-04T17:16:55.729Z,19.80
2023-05-04T17:21:47.876Z,19.70
2023-05-04T17:26:39.870Z,19.70
2023-05-04T17:31:31.997Z,19.60
2023-05-04T17:36:24.137Z,19.50
2023-05-04T17:41:16.283Z,19.40
2023-05-04T17:46:08.554Z,19.30
2023-05-04T17:51:00.590Z,19.10
2023-05-04T17:55:52.676Z,19.00
2023-05-04T18:00:44.952Z,18.80
2023-05-04T18:05:40.426Z,18.60
2023-05-04T18:10:32.696Z,18.50
2023-05-04T18:15:24.974Z,18.40
2023-05-04T18:20:17.223Z,18.30
2023-05-04T18:25:09.732Z,18.20
2023-05-04T18:30:03.476Z,17.90
2023-05-04T18:34:58.079Z,17.80
2023-05-04T18:39:50.435Z,17.60
2023-05-04T18:44:42.581Z,17.40
2023-05-04T18:49:34.771Z,17.20
2023-05-04T18:54:32.523Z,17.10
2023-05-04T18:59:25.647Z,17.00
2023-05-04T19:04:21.002Z,16.80
2023-05-04T19:09:14.461Z,16.80
2023-05-04T19:14:06.759Z,16.70
2023-05-04T19:18:58.784Z,16.60
2023-05-04T19:23:50.985Z,16.50
2023-05-04T19:28:43.065Z,16.40
2023-05-04T19:33:47.291Z,16.20
2023-05-04T19:38:39.738Z,15.90
2023-05-04T19:43:33.561Z,15.70
2023-05-04T19:48:25.725Z,15.40
2023-05-04T19:53:17.810Z,15.20
2023-05-04T19:58:10.858Z,15.00
2023-05-04T20:03:03.043Z,14.80
2023-05-04T20:07:55.119Z,14.70
2023-05-04T20:12:47.250Z,14.50
2023-05-04T20:17:39.326Z,14.30
2023-05-04T20:22:32.407Z,14.00
2023-05-04T20:27:24.507Z,14.00
2023-05-04T20:32:17.281Z,13.90
2023-05-04T20:37:09.651Z,13.70
2023-05-04T20:42:01.734Z,13.60
2023-05-04T20:46:53.841Z,13.60
2023-05-04T20:51:46.216Z,13.60
2023-05-04T20:56:38.258Z,13.60
2023-05-04T21:01:30.392Z,13.60
2023-05-04T21:06:24.347Z,13.50
2023-05-04T21:11:16.564Z,13.50
2023-05-04T21:16:08.966Z,13.40
2023-05-04T21:21:06.055Z,13.20
2023-05-04T21:26:04.720Z,13.10
2023-05-04T21:30:57.060Z,13.00
2023-05-04T21:35:49.146Z,12.90
2023-05-04T21:40:41.298Z,12.90
2023-05-04T21:45:33.769Z,12.90
2023-05-04T21:50:26.451Z,12.70
2023-05-04T21:55:18.628Z,12.50
2023-05-04T22:00:18.254Z,12.40
2023-05-04T22:05:11.006Z,12.30
2023-05-04T22:10:07.337Z,12.30
2023-05-04T22:14:59.579Z,12.20
2023-05-04T22:19:51.578Z,12.10
2023-05-04T22:24:43.627Z,12.00
2023-05-04T22:29:35.912Z,11.80
2023-05-04T22:34:27.999Z,11.80
2023-05-04T22:39:20.174Z,11.60
2023-05-04T22:44:12.220Z,11.50
2023-05-04T22:49:04.675Z,11.40
2023-05-04T22:53:56.671Z,11.30
2023-05-04T22:58:48.751Z,11.20
2023-05-04T23:03:41.066Z,11.10
2023-05-04T23:08:33.209Z,11.10
2023-05-04T23:13:25.282Z,11.10
2023-05-04T23:18:17.275Z,11.00
2023-05-04T23:23:09.471Z,10.90
2023-05-04T23:28:01.431Z,10.80
2023-05-04T23:32:53.473Z,10.70
2023-05-04T23:37:45.549Z,10.70
2023-05-04T23:42:37.671Z,10.60
2023-05-04T23:47:29.733Z,10.40
2023-05-04T23:52:21.808Z,10.30
2023-05-04T23:57:13.821Z,10.20
